createdAt,value
2018-12-13T00:00:44.289Z,18.10
2018-12-13T00:03:17.356Z,18.10
2018-12-13T00:05:49.655Z,18.10
2018-12-13T00:08:26.098Z,18.00
2018-12-13T00:10:59.403Z,18.00
2018-12-13T00:13:37.268Z,17.90
2018-12-13T00:16:10.690Z,17.80
2018-12-13T00:18:44.521Z,17.80
2018-12-13T00:21:19.247Z,17.80
2018-12-13T00:23:54.257Z,17.90
2018-12-13T00:26:28.571Z,17.80
2018-12-13T00:31:41.572Z,17.70
2018-12-13T00:34:15.925Z,17.70
2018-12-13T00:36:48.868Z,17.70
2018-12-13T00:39:21.872Z,17.70
2018-12-13T00:42:07.843Z,17.80
2018-12-13T00:54:22.143Z,17.80
2018-12-13T00:57:17.749Z,17.80
2018-12-13T00:59:51.074Z,17.70
2018-12-13T01:02:27.641Z,17.70
2018-12-13T01:05:00.589Z,17.70
2018-12-13T01:07:37.194Z,17.70
2018-12-13T01:10:10.055Z,17.60
2018-12-13T01:12:43.810Z,17.60
2018-12-13T01:15:16.312Z,17.60
2018-12-13T01:17:57.230Z,17.60
2018-12-13T01:26:42.027Z,17.60
2018-12-13T01:29:15.195Z,17.60
2018-12-13T01:31:48.363Z,17.50
2018-12-13T01:34:21.352Z,17.50
2018-12-13T01:36:54.983Z,17.50
2018-12-13T01:39:31.553Z,17.40
2018-12-13T01:42:10.533Z,17.40
2018-12-13T01:44:43.741Z,17.40
2018-12-13T01:50:02.583Z,17.40
2018-12-13T01:52:39.542Z,17.30
2018-12-13T01:55:13.094Z,17.30
2018-12-13T01:57:52.541Z,17.30
2018-12-13T02:00:26.289Z,17.20
2018-12-13T02:03:07.919Z,17.20
2018-12-13T02:05:40.914Z,17.20
2018-12-13T02:08:14.848Z,17.10
2018-12-13T02:10:51.349Z,17.10
2018-12-13T02:13:25.814Z,17.10
2018-12-13T02:15:58.356Z,17.00
2018-12-13T02:18:31.660Z,17.00
2018-12-13T02:21:05.216Z,17.00
2018-12-13T02:23:40.601Z,16.90
2018-12-13T02:26:13.519Z,16.90
2018-12-13T02:28:47.330Z,16.80
2018-12-13T02:31:19.949Z,16.90
2018-12-13T02:33:53.984Z,16.80
2018-12-13T02:36:26.563Z,16.80
2018-12-13T02:39:01.122Z,16.80
2018-12-13T02:41:33.834Z,16.80
2018-12-13T02:44:07.465Z,16.80
2018-12-13T02:46:41.586Z,16.70
2018-12-13T02:49:15.249Z,16.70
2018-12-13T02:51:47.965Z,16.60
2018-12-13T02:54:21.274Z,16.60
2018-12-13T02:56:53.786Z,16.60
2018-12-13T02:59:27.116Z,16.50
2018-12-13T03:02:05.873Z,16.50
2018-12-13T03:04:39.012Z,16.50
2018-12-13T03:07:14.046Z,16.40
2018-12-13T03:09:46.941Z,16.40
2018-12-13T03:12:19.453Z,16.30
2018-12-13T03:14:52.614Z,16.30
2018-12-13T03:17:25.772Z,16.30
2018-12-13T03:19:59.881Z,16.20
2018-12-13T03:22:33.221Z,16.10
2018-12-13T03:25:06.907Z,16.00
2018-12-13T03:27:40.936Z,15.90
2018-12-13T03:30:14.794Z,15.90
2018-12-13T03:32:48.509Z,15.80
2018-12-13T03:35:21.780Z,15.80
2018-12-13T03:37:54.285Z,15.80
2018-12-13T03:40:27.570Z,15.70
2018-12-13T03:43:00.209Z,15.70
2018-12-13T03:45:34.464Z,15.70
2018-12-13T03:50:49.017Z,15.50
2018-12-13T03:53:21.742Z,15.50
2018-12-13T03:59:15.288Z,15.50
2018-12-13T04:01:48.757Z,15.50
2018-12-13T04:04:21.629Z,15.50
2018-12-13T04:06:54.534Z,15.50
2018-12-13T04:09:28.045Z,15.40
2018-12-13T04:12:02.021Z,15.40
2018-12-13T04:14:34.492Z,15.30
2018-12-13T04:17:07.134Z,15.30
2018-12-13T04:19:39.445Z,15.30
2018-12-13T04:22:12.146Z,15.30
2018-12-13T04:24:44.431Z,15.30
2018-12-13T04:27:16.712Z,15.30
2018-12-13T04:29:49.841Z,15.40
2018-12-13T04:32:24.881Z,15.40
2018-12-13T04:34:57.943Z,15.40
2018-12-13T04:37:35.299Z,15.40
2018-12-13T04:40:04.782Z,15.40
2018-12-13T04:42:37.581Z,15.30
2018-12-13T04:45:09.951Z,15.30
2018-12-13T04:47:42.933Z,15.30
2018-12-13T04:50:15.419Z,15.20
2018-12-13T04:52:47.868Z,15.10
2018-12-13T04:55:21.043Z,15.00
2018-12-13T04:57:53.345Z,15.00
2018-12-13T05:00:25.604Z,14.90
2018-12-13T05:02:58.755Z,14.90
2018-12-13T05:05:31.031Z,14.80
2018-12-13T05:08:03.246Z,14.80
2018-12-13T05:10:59.103Z,14.80
2018-12-13T05:13:31.371Z,14.80
2018-12-13T05:16:04.576Z,14.70
2018-12-13T05:18:37.151Z,14.70
2018-12-13T05:21:09.409Z,14.70
2018-12-13T05:23:41.759Z,14.80
2018-12-13T05:29:35.710Z,14.80
2018-12-13T05:32:08.559Z,14.80
2018-12-13T05:34:42.194Z,14.80
2018-12-13T05:37:15.092Z,14.80
2018-12-13T05:39:48.076Z,14.90
2018-12-13T05:42:21.029Z,14.90
2018-12-13T05:44:53.976Z,14.90
2018-12-13T05:47:27.625Z,14.90
2018-12-13T05:50:00.621Z,15.00
2018-12-13T05:55:54.356Z,15.00
2018-12-13T05:58:26.582Z,15.00
2018-12-13T06:00:59.172Z,15.00
2018-12-13T06:03:31.668Z,14.90
2018-12-13T06:06:03.849Z,15.00
2018-12-13T06:08:36.061Z,15.00
2018-12-13T06:11:08.223Z,15.00
2018-12-13T06:13:40.340Z,15.00
2018-12-13T06:16:12.518Z,15.00
2018-12-13T06:18:44.692Z,15.00
2018-12-13T06:21:16.928Z,15.00
2018-12-13T06:23:49.133Z,15.00
2018-12-13T06:26:26.200Z,15.00
2018-12-13T06:29:00.992Z,14.90
2018-12-13T06:31:33.094Z,14.90
2018-12-13T06:34:05.351Z,14.90
2018-12-13T06:36:40.807Z,14.80
2018-12-13T06:39:15.556Z,14.80
2018-12-13T06:41:50.402Z,14.80
2018-12-13T06:44:25.650Z,14.70
2018-12-13T06:47:01.173Z,14.70
2018-12-13T06:49:38.028Z,14.70
2018-12-13T06:52:10.410Z,14.70
2018-12-13T06:54:42.582Z,14.80
2018-12-13T06:57:14.879Z,14.70
2018-12-13T06:59:47.016Z,14.80
2018-12-13T07:02:19.139Z,14.70
2018-12-13T07:08:18.475Z,14.60
2018-12-13T07:10:51.781Z,14.60
2018-12-13T07:13:24.863Z,14.50
2018-12-13T07:15:57.921Z,14.50
2018-12-13T07:21:51.799Z,14.40
2018-12-13T07:24:24.719Z,14.30
2018-12-13T07:26:57.486Z,14.10
2018-12-13T07:29:30.302Z,14.00
2018-12-13T07:32:03.142Z,13.90
2018-12-13T07:34:35.962Z,13.90
2018-12-13T07:37:09.508Z,13.90
2018-12-13T07:39:42.360Z,13.90
2018-12-13T07:42:15.166Z,13.90
2018-12-13T07:44:48.010Z,13.90
2018-12-13T07:47:20.903Z,13.80
2018-12-13T07:49:53.790Z,13.80
2018-12-13T07:52:26.726Z,13.80
2018-12-13T07:54:59.581Z,13.80
2018-12-13T08:00:57.869Z,13.90
2018-12-13T08:06:51.727Z,13.80
2018-12-13T08:09:24.332Z,13.80
2018-12-13T08:15:17.612Z,13.80
2018-12-13T08:17:50.381Z,13.70
2018-12-13T08:20:23.187Z,13.70
2018-12-13T08:22:55.929Z,13.70
2018-12-13T08:25:28.743Z,13.70
2018-12-13T08:28:01.965Z,13.70
2018-12-13T08:33:56.044Z,13.70
2018-12-13T08:36:28.899Z,13.60
2018-12-13T08:39:48.801Z,13.50
2018-12-13T08:42:21.349Z,13.50
2018-12-13T08:44:53.477Z,13.40
2018-12-13T08:47:26.105Z,13.40
2018-12-13T08:49:58.262Z,13.40
2018-12-13T08:53:09.013Z,13.40
2018-12-13T08:55:41.523Z,13.40
2018-12-13T08:58:14.108Z,13.40
2018-12-13T09:04:07.678Z,13.40
2018-12-13T09:06:40.523Z,13.50
2018-12-13T09:12:33.711Z,13.40
2018-12-13T09:15:05.878Z,13.40
2018-12-13T09:17:38.058Z,13.30
2018-12-13T09:20:10.364Z,13.30
2018-12-13T09:26:03.966Z,13.20
2018-12-13T09:28:36.483Z,13.10
2018-12-13T09:31:09.005Z,13.10
2018-12-13T09:33:41.511Z,13.20
2018-12-13T09:36:14.253Z,13.20
2018-12-13T09:38:47.612Z,13.20
2018-12-13T09:41:20.114Z,13.30
2018-12-13T09:43:52.901Z,13.30
2018-12-13T09:46:25.381Z,13.40
2018-12-13T09:48:57.862Z,13.40
2018-12-13T09:51:30.359Z,13.40
2018-12-13T09:54:03.661Z,13.40
2018-12-13T09:56:36.255Z,13.30
2018-12-13T09:59:08.755Z,13.10
2018-12-13T10:01:41.695Z,13.10
2018-12-13T10:04:14.249Z,13.10
2018-12-13T10:06:46.844Z,13.10
2018-12-13T10:09:19.365Z,12.90
2018-12-13T10:11:51.896Z,13.10
2018-12-13T10:14:24.365Z,13.10
2018-12-13T10:16:57.206Z,13.00
2018-12-13T10:19:29.675Z,12.90
2018-12-13T10:22:02.163Z,12.90
2018-12-13T10:24:34.980Z,12.90
2018-12-13T10:27:07.463Z,12.90
2018-12-13T10:29:39.966Z,12.90
2018-12-13T10:32:12.506Z,13.00
2018-12-13T10:34:45.040Z,12.90
2018-12-13T10:37:17.598Z,12.90
2018-12-13T10:39:50.212Z,12.90
2018-12-13T10:42:22.689Z,12.90
2018-12-13T10:44:55.611Z,12.80
2018-12-13T10:47:28.095Z,12.80
2018-12-13T10:53:20.813Z,12.80
2018-12-13T10:55:52.965Z,12.80
2018-12-13T10:58:25.187Z,12.70
2018-12-13T11:01:01.738Z,12.70
2018-12-13T11:03:37.204Z,12.60
2018-12-13T11:06:09.402Z,12.60
2018-12-13T11:08:41.660Z,12.70
2018-12-13T11:11:13.893Z,12.60
2018-12-13T11:13:48.294Z,12.60
2018-12-13T11:16:20.563Z,12.50
2018-12-13T11:18:53.344Z,12.70
2018-12-13T11:21:25.928Z,12.90
2018-12-13T11:23:58.114Z,13.00
2018-12-13T11:26:30.313Z,13.00
2018-12-13T11:29:36.967Z,12.90
2018-12-13T11:32:09.160Z,12.90
2018-12-13T11:34:41.348Z,12.90
2018-12-13T11:37:13.566Z,12.90
2018-12-13T11:39:45.859Z,12.80
2018-12-13T11:42:18.136Z,12.70
2018-12-13T11:44:50.445Z,12.70
2018-12-13T11:47:22.989Z,12.80
2018-12-13T11:49:55.207Z,12.80
2018-12-13T11:52:27.721Z,12.70
2018-12-13T11:55:02.860Z,12.80
2018-12-13T11:57:35.343Z,12.80
2018-12-13T12:00:08.482Z,12.80
2018-12-13T12:02:41.773Z,12.80
2018-12-13T12:05:13.954Z,12.70
2018-12-13T12:07:47.126Z,12.70
2018-12-13T12:10:21.128Z,12.60
2018-12-13T12:12:53.419Z,12.70
2018-12-13T12:15:25.676Z,12.70
2018-12-13T12:17:57.755Z,12.70
2018-12-13T12:20:29.991Z,12.80
2018-12-13T12:23:02.988Z,12.90
2018-12-13T12:25:35.241Z,13.10
2018-12-13T12:28:08.624Z,13.20
2018-12-13T12:30:46.848Z,13.40
2018-12-13T12:33:19.252Z,13.40
2018-12-13T12:35:51.498Z,13.50
2018-12-13T12:38:24.736Z,13.70
2018-12-13T12:40:56.989Z,13.70
2018-12-13T12:43:29.704Z,13.70
2018-12-13T12:46:02.826Z,13.70
2018-12-13T12:48:35.380Z,13.80
2018-12-13T12:51:09.395Z,14.10
2018-12-13T12:53:42.328Z,14.50
2018-12-13T12:56:16.103Z,14.90
2018-12-13T12:58:48.332Z,15.10
2018-12-13T13:04:44.146Z,15.90
2018-12-13T13:07:17.259Z,16.60
2018-12-13T13:13:21.099Z,16.90
2018-12-13T13:15:54.500Z,17.10
2018-12-13T13:18:27.334Z,17.40
2018-12-13T13:21:00.221Z,17.90
2018-12-13T13:23:34.060Z,18.10
2018-12-13T13:26:08.668Z,18.40
2018-12-13T13:28:41.561Z,18.50
2018-12-13T13:34:34.999Z,18.80
2018-12-13T13:37:07.420Z,18.90
2018-12-13T13:39:39.770Z,19.20
2018-12-13T13:45:33.523Z,20.10
2018-12-13T13:48:05.887Z,20.40
2018-12-13T13:50:38.352Z,20.70
2018-12-13T13:53:10.669Z,20.90
2018-12-13T13:55:42.922Z,20.80
2018-12-13T13:58:15.120Z,21.30
2018-12-13T14:00:47.442Z,21.40
2018-12-13T14:03:19.661Z,21.60
2018-12-13T14:05:51.950Z,22.00
2018-12-13T14:08:24.659Z,22.40
2018-12-13T14:10:57.706Z,21.90
2018-12-13T14:13:29.961Z,21.60
2018-12-13T14:16:02.267Z,22.10
2018-12-13T14:18:35.070Z,22.40
2018-12-13T14:21:07.401Z,22.50
2018-12-13T14:23:39.681Z,22.90
2018-12-13T14:26:12.002Z,22.90
2018-12-13T14:28:47.478Z,23.40
2018-12-13T14:31:20.187Z,22.70
2018-12-13T14:33:52.640Z,23.30
2018-12-13T14:36:24.966Z,23.70
2018-12-13T14:38:57.333Z,24.00
2018-12-13T14:41:30.341Z,23.50
2018-12-13T14:44:02.679Z,23.40
2018-12-13T14:46:35.662Z,24.00
2018-12-13T14:49:08.084Z,24.00
2018-12-13T14:51:40.688Z,23.60
2018-12-13T14:54:18.079Z,23.20
2018-12-13T14:56:51.289Z,23.20
2018-12-13T14:59:23.708Z,23.30
2018-12-13T15:01:56.042Z,23.10
2018-12-13T15:04:31.484Z,22.80
2018-12-13T15:07:03.869Z,22.80
2018-12-13T15:09:36.570Z,23.10
2018-12-13T15:12:09.915Z,23.00
2018-12-13T15:14:42.803Z,23.00
2018-12-13T15:17:15.178Z,23.20
2018-12-13T15:19:48.167Z,23.50
2018-12-13T15:25:43.567Z,23.30
2018-12-13T15:28:17.929Z,23.70
2018-12-13T15:30:55.506Z,23.50
2018-12-13T15:33:28.548Z,23.40
2018-12-13T15:36:01.445Z,22.90
2018-12-13T15:38:34.465Z,22.80
2018-12-13T15:41:08.606Z,23.00
2018-12-13T15:47:05.417Z,22.90
2018-12-13T15:49:38.065Z,22.70
2018-12-13T15:52:56.069Z,23.20
2018-12-13T15:55:30.056Z,23.90
2018-12-13T15:58:03.135Z,24.10
2018-12-13T16:00:37.170Z,24.30
2018-12-13T16:03:10.341Z,24.00
2018-12-13T16:05:54.519Z,24.10
2018-12-13T16:08:27.784Z,24.10
2018-12-13T16:11:01.656Z,24.00
2018-12-13T16:13:38.038Z,24.10
2018-12-13T16:16:20.012Z,24.20
2018-12-13T16:18:53.536Z,24.40
2018-12-13T16:21:36.641Z,24.50
2018-12-13T16:24:14.333Z,24.40
2018-12-13T16:26:51.248Z,24.30
2018-12-13T16:32:51.720Z,24.80
2018-12-13T16:35:24.205Z,25.00
2018-12-13T16:38:01.171Z,25.20
2018-12-13T16:40:33.650Z,25.10
2018-12-13T16:43:06.659Z,25.40
2018-12-13T16:45:40.032Z,25.30
2018-12-13T16:48:12.527Z,25.50
2018-12-13T16:50:45.500Z,25.70
2018-12-13T16:53:18.644Z,25.20
2018-12-13T16:55:51.604Z,25.90
2018-12-13T16:58:27.148Z,25.80
2018-12-13T17:01:02.581Z,25.70
2018-12-13T17:03:44.596Z,26.10
2018-12-13T17:06:20.430Z,26.10
2018-12-13T17:08:56.655Z,26.10
2018-12-13T17:11:28.969Z,25.50
2018-12-13T17:14:02.586Z,25.60
2018-12-13T17:16:35.100Z,26.00
2018-12-13T17:19:08.745Z,25.70
2018-12-13T17:25:02.565Z,26.00
2018-12-13T17:30:57.700Z,26.10
2018-12-13T17:33:30.070Z,26.40
2018-12-13T17:36:03.342Z,26.10
2018-12-13T17:38:37.314Z,26.10
2018-12-13T17:41:14.128Z,26.30
2018-12-13T17:43:46.580Z,26.10
2018-12-13T17:46:20.721Z,26.30
2018-12-13T17:48:55.683Z,26.80
2018-12-13T17:51:30.838Z,27.20
2018-12-13T17:54:05.415Z,27.50
2018-12-13T17:56:38.591Z,27.20
2018-12-13T17:59:13.847Z,26.90
2018-12-13T18:01:47.965Z,27.30
2018-12-13T18:04:21.041Z,27.90
2018-12-13T18:06:57.301Z,27.40
2018-12-13T18:09:31.157Z,27.30
2018-12-13T18:12:05.674Z,27.50
2018-12-13T18:14:38.200Z,27.40
2018-12-13T18:17:13.982Z,27.60
2018-12-13T18:19:52.748Z,27.60
2018-12-13T18:22:26.369Z,28.10
2018-12-13T18:24:59.820Z,27.40
2018-12-13T18:27:32.402Z,27.30
2018-12-13T18:30:06.990Z,27.00
2018-12-13T18:32:40.364Z,27.30
2018-12-13T18:35:12.884Z,26.80
2018-12-13T18:37:46.063Z,27.00
2018-12-13T18:40:19.826Z,27.30
2018-12-13T18:42:52.927Z,27.50
2018-12-13T18:45:30.177Z,27.50
2018-12-13T18:48:03.961Z,27.90
2018-12-13T18:50:37.576Z,27.90
2018-12-13T18:53:11.661Z,27.90
2018-12-13T18:55:44.168Z,27.70
2018-12-13T18:58:17.306Z,27.20
2018-12-13T19:00:55.516Z,27.60
2018-12-13T19:03:28.659Z,27.10
2018-12-13T19:06:01.299Z,27.10
2018-12-13T19:08:34.614Z,26.80
2018-12-13T19:13:46.183Z,27.30
2018-12-13T19:16:18.677Z,27.00
2018-12-13T19:18:51.804Z,27.00
2018-12-13T19:21:24.171Z,27.00
2018-12-13T19:23:56.765Z,27.10
2018-12-13T19:26:30.229Z,26.80
2018-12-13T19:29:03.274Z,26.90
2018-12-13T19:31:35.900Z,27.00
2018-12-13T19:34:09.158Z,27.50
2018-12-13T19:36:42.113Z,27.30
2018-12-13T19:39:20.276Z,27.30
2018-12-13T19:41:54.232Z,27.00
2018-12-13T19:44:27.308Z,26.70
2018-12-13T19:46:59.846Z,27.10
2018-12-13T19:49:34.046Z,27.20
2018-12-13T19:52:06.790Z,27.30
2018-12-13T19:54:40.015Z,26.80
2018-12-13T19:57:13.470Z,26.90
2018-12-13T19:59:46.732Z,27.20
2018-12-13T20:02:19.254Z,27.10
2018-12-13T20:04:52.375Z,26.80
2018-12-13T20:07:25.844Z,26.70
2018-12-13T20:10:01.389Z,26.60
2018-12-13T20:12:36.776Z,26.50
2018-12-13T20:15:10.602Z,26.40
2018-12-13T20:17:43.248Z,26.40
2018-12-13T20:20:19.674Z,26.20
2018-12-13T20:22:55.731Z,26.10
2018-12-13T20:25:29.756Z,25.90
2018-12-13T20:28:02.806Z,25.40
2018-12-13T20:30:39.658Z,25.20
2018-12-13T20:33:15.085Z,25.50
2018-12-13T20:35:50.504Z,25.40
2018-12-13T20:38:24.587Z,25.10
2018-12-13T20:41:01.061Z,25.10
2018-12-13T20:43:34.338Z,25.20
2018-12-13T20:46:07.383Z,25.20
2018-12-13T20:48:42.177Z,25.10
2018-12-13T20:51:17.077Z,25.30
2018-12-13T20:53:50.651Z,25.30
2018-12-13T20:56:23.531Z,25.20
2018-12-13T20:58:56.999Z,25.50
2018-12-13T21:01:48.862Z,25.50
2018-12-13T21:04:27.270Z,25.90
2018-12-13T21:07:04.760Z,25.80
2018-12-13T21:09:37.282Z,25.70
2018-12-13T21:12:11.474Z,25.50
2018-12-13T21:14:45.848Z,24.90
2018-12-13T21:17:19.798Z,24.80
2018-12-13T21:19:54.662Z,24.90
2018-12-13T21:22:28.430Z,24.60
2018-12-13T21:25:03.514Z,24.60
2018-12-13T21:27:40.949Z,24.60
2018-12-13T21:30:13.555Z,25.00
2018-12-13T21:32:46.963Z,24.90
2018-12-13T21:35:19.451Z,24.70
2018-12-13T21:37:55.104Z,24.60
2018-12-13T21:40:42.511Z,24.30
2018-12-13T21:43:21.374Z,23.80
2018-12-13T21:45:57.766Z,23.70
2018-12-13T21:48:33.997Z,23.60
2018-12-13T21:54:30.345Z,23.70
2018-12-13T22:00:54.620Z,23.60
2018-12-13T22:03:28.071Z,24.10
2018-12-13T22:06:01.715Z,24.10
2018-12-13T22:08:35.704Z,23.80
2018-12-13T22:11:09.103Z,23.50
2018-12-13T22:17:03.268Z,23.30
2018-12-13T22:19:37.950Z,23.30
2018-12-13T22:22:12.285Z,23.40
2018-12-13T22:24:48.203Z,22.90
2018-12-13T22:27:23.669Z,22.60
2018-12-13T22:29:56.312Z,22.50
2018-12-13T22:32:30.248Z,22.20
2018-12-13T22:35:16.915Z,22.40
2018-12-13T22:37:53.053Z,22.20
2018-12-13T22:40:26.629Z,21.90
2018-12-13T22:43:00.562Z,21.80
2018-12-13T22:45:33.108Z,21.80
2018-12-13T22:48:20.951Z,21.60
2018-12-13T22:51:55.985Z,21.40
2018-12-13T22:54:30.051Z,21.10
2018-12-13T22:57:03.351Z,21.10
2018-12-13T22:59:36.786Z,21.10
2018-12-13T23:02:09.565Z,21.00
2018-12-13T23:04:49.310Z,20.80
2018-12-13T23:07:23.009Z,20.90
2018-12-13T23:09:56.676Z,20.80
2018-12-13T23:12:29.864Z,20.80
2018-12-13T23:15:02.525Z,20.60
2018-12-13T23:17:35.053Z,20.50
2018-12-13T23:20:10.675Z,20.50
2018-12-13T23:22:44.663Z,20.30
2018-12-13T23:25:17.830Z,20.30
2018-12-13T23:27:50.826Z,20.20
2018-12-13T23:30:24.140Z,20.20
2018-12-13T23:32:56.694Z,20.10
2018-12-13T23:35:42.191Z,20.20
2018-12-13T23:38:15.078Z,20.10
2018-12-13T23:40:48.498Z,20.00
2018-12-13T23:43:21.057Z,19.90
2018-12-13T23:46:01.088Z,19.90
2018-12-13T23:48:34.272Z,20.00
2018-12-13T23:51:08.813Z,19.90
2018-12-13T23:53:41.935Z,19.80
2018-12-13T23:56:15.019Z,19.70
2018-12-13T23:58:49.381Z,19.60
